createdAt,value
2022-12-23T00:02:32.169Z,8.20
2022-12-23T00:08:35.414Z,8.60
2022-12-23T00:14:55.935Z,8.70
2022-12-23T00:21:06.623Z,8.70
2022-12-23T00:27:10.311Z,8.80
2022-12-23T00:33:13.130Z,8.80
2022-12-23T00:39:33.662Z,8.90
2022-12-23T00:45:35.746Z,8.80
2022-12-23T00:51:37.869Z,8.80
2022-12-23T00:57:39.757Z,8.80
2022-12-23T01:04:00.149Z,8.90
2022-12-23T01:10:02.100Z,8.80
2022-12-23T01:16:13.486Z,8.70
2022-12-23T01:22:19.053Z,8.80
2022-12-23T01:28:20.918Z,8.80
2022-12-23T01:34:22.897Z,8.90
2022-12-23T01:40:24.787Z,8.90
2022-12-23T01:46:26.797Z,8.80
2022-12-23T01:52:30.406Z,8.70
2022-12-23T01:58:47.801Z,8.70
2022-12-23T02:04:51.248Z,8.70
2022-12-23T02:11:20.381Z,8.70
2022-12-23T02:17:31.322Z,8.70
2022-12-23T02:23:33.122Z,8.80
2022-12-23T02:30:05.873Z,8.80
2022-12-23T02:36:24.171Z,8.80
2022-12-23T02:42:49.816Z,8.80
2022-12-23T02:49:00.435Z,8.90
2022-12-23T02:55:20.699Z,9.00
2022-12-23T03:01:26.130Z,8.80
2022-12-23T03:07:38.641Z,8.90
2022-12-23T03:14:04.991Z,9.00
2022-12-23T03:20:33.414Z,8.90
2022-12-23T03:26:46.715Z,8.90
2022-12-23T03:33:06.645Z,8.90
2022-12-23T03:39:19.993Z,8.80
2022-12-23T03:45:38.658Z,8.90
2022-12-23T03:52:20.797Z,8.90
2022-12-23T03:59:05.364Z,8.90
2022-12-23T04:05:25.266Z,9.00
2022-12-23T04:11:27.154Z,8.90
2022-12-23T04:17:29.513Z,8.90
2022-12-23T04:23:31.443Z,8.90
2022-12-23T04:29:33.379Z,9.10
2022-12-23T04:35:35.266Z,9.10
2022-12-23T04:41:37.162Z,9.00
2022-12-23T04:47:40.600Z,8.80
2022-12-23T04:53:42.911Z,8.80
2022-12-23T04:59:45.033Z,8.80
2022-12-23T05:05:46.937Z,8.70
2022-12-23T05:11:48.821Z,9.00
2022-12-23T05:17:50.706Z,8.80
2022-12-23T05:23:52.608Z,8.80
2022-12-23T05:29:54.501Z,9.00
2022-12-23T05:35:57.423Z,8.90
2022-12-23T05:41:59.298Z,8.80
2022-12-23T05:48:01.190Z,8.80
2022-12-23T05:54:03.125Z,8.90
2022-12-23T06:00:05.688Z,8.70
2022-12-23T06:06:07.734Z,9.00
2022-12-23T06:12:09.645Z,9.00
2022-12-23T06:18:11.551Z,8.80
2022-12-23T06:24:13.448Z,8.80
2022-12-23T06:30:15.733Z,8.80
2022-12-23T06:36:17.689Z,8.80
2022-12-23T06:42:19.610Z,8.90
2022-12-23T06:48:21.509Z,8.90
2022-12-23T06:54:23.447Z,8.70
2022-12-23T07:00:25.424Z,8.90
2022-12-23T07:06:27.301Z,8.90
2022-12-23T07:12:29.318Z,8.90
2022-12-23T07:18:31.300Z,8.70
2022-12-23T07:24:37.440Z,8.90
2022-12-23T07:30:39.384Z,8.80
2022-12-23T07:36:41.334Z,9.00
2022-12-23T07:42:45.678Z,9.10
2022-12-23T07:48:48.313Z,8.90
2022-12-23T07:54:50.184Z,9.20
2022-12-23T08:00:59.381Z,9.10
2022-12-23T08:07:01.359Z,8.90
2022-12-23T08:13:03.250Z,9.20
2022-12-23T08:19:05.189Z,9.00
2022-12-23T08:25:07.674Z,9.20
2022-12-23T08:31:16.794Z,9.30
2022-12-23T08:37:18.714Z,9.30
2022-12-23T08:43:20.599Z,9.40
2022-12-23T08:49:23.239Z,9.30
2022-12-23T08:55:25.138Z,9.30
2022-12-23T09:01:30.869Z,9.30
2022-12-23T09:07:33.159Z,9.40
2022-12-23T09:13:36.062Z,9.40
2022-12-23T09:19:38.060Z,9.40
2022-12-23T09:25:40.119Z,9.40
2022-12-23T09:31:42.077Z,9.30
2022-12-23T09:37:44.034Z,9.30
2022-12-23T09:44:24.865Z,9.30
2022-12-23T09:50:33.642Z,9.40
2022-12-23T09:56:59.340Z,9.70
2022-12-23T10:03:28.847Z,9.60
2022-12-23T10:09:42.757Z,9.70
2022-12-23T10:15:49.131Z,9.50
2022-12-23T10:22:00.629Z,9.70
2022-12-23T10:28:03.842Z,9.70
2022-12-23T10:34:22.636Z,9.80
2022-12-23T10:40:48.861Z,9.90
2022-12-23T10:47:25.350Z,9.80
2022-12-23T10:53:44.194Z,9.60
2022-12-23T10:59:46.418Z,9.50
2022-12-23T11:05:52.292Z,9.70
2022-12-23T11:12:06.475Z,9.60
2022-12-23T11:18:20.020Z,9.80
2022-12-23T11:24:23.533Z,9.90
2022-12-23T11:30:26.368Z,10.00
2022-12-23T11:36:30.272Z,9.90
2022-12-23T11:42:34.888Z,10.10
2022-12-23T11:48:36.822Z,10.00
2022-12-23T11:54:39.931Z,10.10
2022-12-23T12:00:55.384Z,10.00
2022-12-23T12:06:58.353Z,10.00
2022-12-23T12:13:05.504Z,9.90
2022-12-23T12:19:32.087Z,10.00
2022-12-23T12:25:46.812Z,10.00
2022-12-23T12:31:56.867Z,10.20
2022-12-23T12:38:27.185Z,10.30
2022-12-23T12:44:52.200Z,10.30
2022-12-23T12:51:14.391Z,10.30
2022-12-23T12:57:21.095Z,10.40
2022-12-23T13:04:01.440Z,10.40
2022-12-23T13:10:27.382Z,10.50
2022-12-23T13:17:05.261Z,10.60
2022-12-23T13:30:05.523Z,10.50
2022-12-23T13:36:29.601Z,10.60
2022-12-23T13:42:40.291Z,10.20
2022-12-23T13:49:35.049Z,10.20
2022-12-23T13:56:09.215Z,10.00
2022-12-23T14:02:36.020Z,10.00
2022-12-23T14:08:42.992Z,9.90
2022-12-23T14:15:16.295Z,9.70
2022-12-23T14:21:36.123Z,9.70
2022-12-23T14:28:05.872Z,9.60
2022-12-23T14:34:22.902Z,9.60
2022-12-23T14:40:39.721Z,9.30
2022-12-23T14:46:41.499Z,9.30
2022-12-23T14:52:58.571Z,9.30
2022-12-23T14:59:12.497Z,9.20
2022-12-23T15:05:14.452Z,9.20
2022-12-23T15:11:28.834Z,9.40
2022-12-23T15:17:33.555Z,9.40
2022-12-23T15:23:35.493Z,9.30
2022-12-23T15:29:37.814Z,9.20
2022-12-23T15:35:40.221Z,9.20
2022-12-23T15:41:44.972Z,9.10
2022-12-23T15:47:46.857Z,9.30
2022-12-23T15:53:49.043Z,9.30
2022-12-23T15:59:51.276Z,9.20
2022-12-23T16:05:53.411Z,9.10
2022-12-23T16:11:57.054Z,9.10
2022-12-23T16:18:21.729Z,9.10
2022-12-23T16:24:23.739Z,9.00
2022-12-23T16:30:36.956Z,9.10
2022-12-23T16:36:38.911Z,8.90
2022-12-23T16:42:40.892Z,8.80
2022-12-23T16:49:00.735Z,8.70
2022-12-23T16:55:02.645Z,8.80
2022-12-23T17:01:04.745Z,8.90
2022-12-23T17:07:12.202Z,8.70
2022-12-23T17:13:18.800Z,8.90
2022-12-23T17:19:27.956Z,8.80
2022-12-23T17:25:31.367Z,8.90
2022-12-23T17:31:34.287Z,9.00
2022-12-23T17:37:38.220Z,9.10
2022-12-23T17:43:40.113Z,9.00
2022-12-23T17:49:42.894Z,9.00
2022-12-23T17:55:45.560Z,9.10
2022-12-23T18:01:47.874Z,9.00
2022-12-23T18:07:52.297Z,9.10
2022-12-23T18:13:54.540Z,9.10
2022-12-23T18:19:56.471Z,9.10
2022-12-23T18:25:59.523Z,8.90
2022-12-23T18:32:01.525Z,9.00
2022-12-23T18:38:03.450Z,9.00
2022-12-23T18:44:05.493Z,8.90
2022-12-23T18:50:08.042Z,8.90
2022-12-23T18:56:21.620Z,8.90
2022-12-23T19:02:23.630Z,8.90
2022-12-23T19:08:27.919Z,8.70
2022-12-23T19:14:29.970Z,8.80
2022-12-23T19:20:31.865Z,8.80
2022-12-23T19:26:33.770Z,8.90
2022-12-23T19:32:35.719Z,8.90
2022-12-23T19:38:37.715Z,8.80
2022-12-23T19:44:39.633Z,8.70
2022-12-23T19:50:41.519Z,8.60
2022-12-23T19:56:43.881Z,8.80
2022-12-23T20:02:45.832Z,8.70
2022-12-23T20:08:48.837Z,8.90
2022-12-23T20:14:50.767Z,8.80
2022-12-23T20:20:52.837Z,8.80
2022-12-23T20:26:54.733Z,9.00
2022-12-23T20:32:58.685Z,9.10
2022-12-23T20:39:02.078Z,9.50
2022-12-23T20:45:04.619Z,9.40
2022-12-23T20:51:14.239Z,9.60
2022-12-23T20:57:16.131Z,9.70
2022-12-23T21:03:18.156Z,9.90
2022-12-23T21:09:20.395Z,10.10
2022-12-23T21:15:23.308Z,10.50
2022-12-23T21:21:27.787Z,10.50
2022-12-23T21:27:29.686Z,10.40
2022-12-23T21:33:31.646Z,10.40
2022-12-23T21:39:33.546Z,10.30
2022-12-23T21:45:35.471Z,10.30
2022-12-23T21:51:40.813Z,10.30
2022-12-23T21:57:44.353Z,10.30
2022-12-23T22:03:49.367Z,10.20
2022-12-23T22:09:51.273Z,10.20
2022-12-23T22:15:53.438Z,10.20
2022-12-23T22:21:55.363Z,10.20
2022-12-23T22:27:57.283Z,10.10
2022-12-23T22:34:00.119Z,10.10
2022-12-23T22:40:02.165Z,10.00
2022-12-23T22:46:04.354Z,10.10
2022-12-23T22:52:06.281Z,10.20
2022-12-23T22:58:08.269Z,10.30
2022-12-23T23:04:10.547Z,10.40
2022-12-23T23:10:12.855Z,10.50
2022-12-23T23:16:14.845Z,10.40
2022-12-23T23:22:19.021Z,10.50
2022-12-23T23:28:20.921Z,10.50
2022-12-23T23:34:22.820Z,10.60
2022-12-23T23:40:24.817Z,10.70
2022-12-23T23:46:26.803Z,10.70
2022-12-23T23:52:29.156Z,10.70
2022-12-23T23:58:31.477Z,10.60
